createdAt,value
2023-02-19T00:01:28.121Z,0.70
2023-02-19T00:04:30.093Z,0.93
2023-02-19T00:07:32.015Z,0.80
2023-02-19T00:10:33.973Z,0.70
2023-02-19T00:13:37.308Z,1.00
2023-02-19T00:16:40.176Z,0.70
2023-02-19T00:19:42.194Z,0.80
2023-02-19T00:22:44.220Z,0.70
2023-02-19T00:25:46.331Z,0.67
2023-02-19T00:28:50.192Z,0.70
2023-02-19T00:31:52.303Z,0.80
2023-02-19T00:34:54.517Z,0.90
2023-02-19T00:37:56.483Z,0.67
2023-02-19T00:41:01.357Z,0.90
2023-02-19T00:44:06.997Z,0.97
2023-02-19T00:47:08.974Z,1.00
2023-02-19T00:50:13.889Z,0.70
2023-02-19T00:53:16.478Z,0.70
2023-02-19T00:56:19.085Z,1.10
2023-02-19T00:59:21.109Z,0.90
2023-02-19T01:02:23.060Z,1.00
2023-02-19T01:05:25.157Z,0.80
2023-02-19T01:08:27.724Z,0.63
2023-02-19T01:11:29.808Z,0.90
2023-02-19T01:14:31.856Z,0.87
2023-02-19T01:17:36.213Z,1.13
2023-02-19T01:20:41.075Z,0.93
2023-02-19T01:23:44.257Z,1.17
2023-02-19T01:26:46.295Z,1.10
2023-02-19T01:29:48.236Z,0.90
2023-02-19T01:32:50.335Z,0.90
2023-02-19T01:35:53.865Z,1.10
2023-02-19T01:38:56.033Z,1.23
2023-02-19T01:41:58.860Z,1.10
2023-02-19T01:45:22.113Z,1.60
2023-02-19T01:48:29.832Z,1.20
2023-02-19T01:51:33.947Z,1.30
2023-02-19T01:54:38.474Z,1.30
2023-02-19T01:57:46.746Z,1.50
2023-02-19T02:00:52.242Z,1.50
2023-02-19T02:03:54.482Z,1.33
2023-02-19T02:06:57.999Z,1.53
2023-02-19T02:10:18.413Z,1.50
2023-02-19T02:13:21.085Z,1.70
2023-02-19T02:16:35.757Z,1.60
2023-02-19T02:19:54.380Z,1.57
2023-02-19T02:22:59.026Z,1.73
2023-02-19T02:26:15.966Z,1.63
2023-02-19T02:29:32.943Z,1.80
2023-02-19T02:32:53.630Z,1.50
2023-02-19T02:36:05.645Z,1.50
2023-02-19T02:39:11.680Z,1.60
2023-02-19T02:42:29.199Z,1.20
2023-02-19T02:45:40.168Z,1.77
2023-02-19T02:49:03.287Z,1.30
2023-02-19T02:52:28.086Z,2.00
2023-02-19T02:55:34.750Z,1.13
2023-02-19T02:58:37.875Z,1.50
2023-02-19T03:02:05.115Z,1.77
2023-02-19T03:05:32.910Z,1.60
2023-02-19T03:08:41.322Z,1.50
2023-02-19T03:12:05.388Z,2.17
2023-02-19T03:15:30.236Z,1.50
2023-02-19T03:18:54.585Z,1.30
2023-02-19T03:22:10.180Z,1.20
2023-02-19T03:25:44.542Z,1.40
2023-02-19T03:29:11.928Z,1.70
2023-02-19T03:32:29.718Z,1.53
2023-02-19T03:35:34.814Z,1.30
2023-02-19T03:39:04.882Z,1.50
2023-02-19T03:42:11.451Z,1.60
2023-02-19T03:45:41.868Z,1.77
2023-02-19T03:49:02.960Z,1.40
2023-02-19T03:52:20.848Z,1.43
2023-02-19T03:55:37.057Z,1.50
2023-02-19T03:59:15.399Z,1.63
2023-02-19T04:02:24.031Z,1.30
2023-02-19T04:05:29.914Z,0.87
2023-02-19T04:08:36.080Z,1.30
2023-02-19T04:11:40.590Z,1.30
2023-02-19T04:15:12.627Z,1.40
2023-02-19T04:18:18.938Z,1.20
2023-02-19T04:21:23.142Z,1.20
2023-02-19T04:24:37.506Z,1.47
2023-02-19T04:27:40.503Z,1.27
2023-02-19T04:30:43.810Z,1.00
2023-02-19T04:33:45.934Z,1.40
2023-02-19T04:36:47.867Z,0.93
2023-02-19T04:39:49.833Z,1.10
2023-02-19T04:42:51.778Z,1.30
2023-02-19T04:45:53.716Z,1.13
2023-02-19T04:48:56.233Z,1.10
2023-02-19T04:51:58.262Z,1.40
2023-02-19T04:55:00.221Z,1.03
2023-02-19T04:58:02.220Z,1.30
2023-02-19T05:01:04.851Z,1.00
2023-02-19T05:04:06.920Z,1.30
2023-02-19T05:07:08.947Z,1.40
2023-02-19T05:10:10.891Z,1.30
2023-02-19T05:13:12.921Z,1.40
2023-02-19T05:16:18.884Z,1.50
2023-02-19T05:19:20.973Z,1.60
2023-02-19T05:22:22.948Z,1.50
2023-02-19T05:25:24.940Z,1.37
2023-02-19T05:28:29.155Z,1.57
2023-02-19T05:31:33.893Z,1.70
2023-02-19T05:34:35.977Z,1.60
2023-02-19T05:37:37.958Z,1.40
2023-02-19T05:40:40.496Z,1.43
2023-02-19T05:43:44.921Z,1.57
2023-02-19T05:46:46.923Z,1.67
2023-02-19T05:49:49.057Z,1.30
2023-02-19T05:52:51.085Z,1.50
2023-02-19T05:55:53.911Z,1.40
2023-02-19T05:58:56.972Z,1.40
2023-02-19T06:01:59.133Z,1.37
2023-02-19T06:05:01.084Z,1.30
2023-02-19T06:08:03.246Z,1.33
2023-02-19T06:11:05.430Z,1.47
2023-02-19T06:14:07.719Z,1.27
2023-02-19T06:17:09.667Z,1.53
2023-02-19T06:20:11.743Z,1.00
2023-02-19T06:23:13.784Z,1.30
2023-02-19T06:26:18.725Z,1.27
2023-02-19T06:29:20.708Z,0.90
2023-02-19T06:32:23.581Z,1.40
2023-02-19T06:35:25.623Z,1.27
2023-02-19T06:38:28.436Z,1.37
2023-02-19T06:41:30.470Z,1.10
2023-02-19T06:44:32.515Z,1.10
2023-02-19T06:47:34.597Z,1.30
2023-02-19T06:50:36.645Z,1.30
2023-02-19T06:53:38.863Z,1.30
2023-02-19T06:56:42.295Z,1.30
2023-02-19T06:59:44.396Z,1.10
2023-02-19T07:02:46.292Z,1.43
2023-02-19T07:05:48.600Z,1.10
2023-02-19T07:08:52.059Z,1.00
2023-02-19T07:11:54.500Z,1.00
2023-02-19T07:14:56.499Z,1.10
2023-02-19T07:17:59.624Z,0.70
2023-02-19T07:21:10.655Z,0.60
2023-02-19T07:24:13.124Z,0.60
2023-02-19T07:27:15.074Z,0.53
2023-02-19T07:30:17.043Z,0.47
2023-02-19T07:33:19.393Z,0.60
2023-02-19T07:36:23.470Z,0.70
2023-02-19T07:39:25.435Z,0.40
2023-02-19T07:42:27.493Z,0.50
2023-02-19T07:45:29.573Z,0.40
2023-02-19T07:48:31.568Z,0.60
2023-02-19T07:51:33.632Z,0.60
2023-02-19T07:54:35.725Z,0.60
2023-02-19T07:57:37.734Z,0.50
2023-02-19T08:00:40.434Z,0.40
2023-02-19T08:03:43.064Z,0.50
2023-02-19T08:06:45.353Z,0.60
2023-02-19T08:10:07.328Z,0.50
2023-02-19T08:13:26.033Z,0.60
2023-02-19T08:16:42.012Z,0.37
2023-02-19T08:19:45.161Z,0.47
2023-02-19T08:22:47.195Z,0.40
2023-02-19T08:25:50.610Z,0.30
2023-02-19T08:28:52.713Z,0.43
2023-02-19T08:31:54.793Z,0.30
2023-02-19T08:34:56.800Z,0.60
2023-02-19T08:37:59.390Z,0.40
2023-02-19T08:41:04.647Z,0.40
2023-02-19T08:44:06.645Z,0.53
2023-02-19T08:47:08.683Z,0.50
2023-02-19T08:50:12.426Z,0.40
2023-02-19T08:53:14.421Z,0.50
2023-02-19T08:56:17.843Z,0.40
2023-02-19T08:59:20.849Z,0.53
2023-02-19T09:02:24.013Z,0.50
2023-02-19T09:05:25.955Z,0.40
2023-02-19T09:08:27.980Z,0.40
2023-02-19T09:11:29.966Z,0.53
2023-02-19T09:14:33.791Z,0.50
2023-02-19T09:17:35.835Z,0.40
2023-02-19T09:20:37.901Z,0.57
2023-02-19T09:23:40.102Z,0.60
2023-02-19T09:26:42.043Z,0.60
2023-02-19T09:29:44.169Z,0.40
2023-02-19T09:32:46.337Z,0.60
2023-02-19T09:35:48.483Z,0.70
2023-02-19T09:38:50.482Z,0.60
2023-02-19T09:41:58.348Z,0.60
2023-02-19T09:45:02.043Z,0.83
2023-02-19T09:48:06.648Z,0.80
2023-02-19T09:51:11.295Z,0.80
2023-02-19T09:54:23.758Z,0.80
2023-02-19T09:57:29.881Z,0.60
2023-02-19T10:00:34.453Z,0.60
2023-02-19T10:03:41.573Z,0.70
2023-02-19T10:06:43.994Z,0.60
2023-02-19T10:09:52.979Z,0.53
2023-02-19T10:13:00.371Z,0.70
2023-02-19T10:16:06.569Z,0.43
2023-02-19T10:19:12.855Z,0.43
2023-02-19T10:22:15.146Z,0.30
2023-02-19T10:25:17.930Z,0.30
2023-02-19T10:28:23.564Z,0.53
2023-02-19T10:31:26.282Z,0.20
2023-02-19T10:34:28.902Z,0.30
2023-02-19T10:37:30.952Z,0.30
2023-02-19T10:40:34.153Z,0.30
2023-02-19T10:43:41.340Z,0.20
2023-02-19T10:46:49.962Z,0.30
2023-02-19T10:49:56.124Z,0.20
2023-02-19T10:53:01.125Z,0.30
2023-02-19T10:56:10.695Z,0.30
2023-02-19T10:59:19.224Z,0.40
2023-02-19T11:02:21.963Z,0.20
2023-02-19T11:05:25.137Z,0.30
2023-02-19T11:08:27.861Z,0.30
2023-02-19T11:11:32.812Z,0.40
2023-02-19T11:14:35.342Z,0.47
2023-02-19T11:17:37.838Z,0.40
2023-02-19T11:20:49.929Z,0.40
2023-02-19T11:23:52.599Z,0.40
2023-02-19T11:26:55.569Z,0.40
2023-02-19T11:30:36.561Z,0.60
2023-02-19T11:33:45.989Z,0.57
2023-02-19T11:37:08.429Z,0.50
2023-02-19T11:40:13.854Z,0.50
2023-02-19T11:43:27.335Z,0.50
2023-02-19T11:46:47.035Z,0.30
2023-02-19T11:49:49.282Z,0.50
2023-02-19T11:53:32.173Z,0.40
2023-02-19T11:56:37.477Z,0.50
2023-02-19T11:59:56.295Z,0.50
2023-02-19T12:03:16.965Z,0.50
2023-02-19T12:06:47.945Z,0.50
2023-02-19T12:10:18.156Z,0.30
2023-02-19T12:13:26.838Z,0.60
2023-02-19T12:16:59.391Z,0.40
2023-02-19T12:20:23.264Z,0.30
2023-02-19T12:23:59.473Z,0.40
2023-02-19T12:27:20.347Z,0.50
2023-02-19T12:30:53.664Z,0.30
2023-02-19T12:34:25.248Z,0.33
2023-02-19T12:37:49.330Z,0.30
2023-02-19T12:41:17.496Z,0.30
2023-02-19T12:44:45.659Z,0.40
2023-02-19T12:48:00.757Z,0.37
2023-02-19T12:51:11.240Z,0.30
2023-02-19T12:54:27.119Z,0.40
2023-02-19T12:57:35.636Z,0.40
2023-02-19T13:00:50.163Z,0.20
2023-02-19T13:04:16.939Z,0.40
2023-02-19T13:07:48.244Z,0.30
2023-02-19T13:11:07.323Z,0.40
2023-02-19T13:14:21.153Z,0.33
2023-02-19T13:17:46.120Z,0.20
2023-02-19T13:20:52.377Z,0.50
2023-02-19T13:24:02.040Z,0.20
2023-02-19T13:27:21.383Z,0.40
2023-02-19T13:31:16.216Z,0.47
2023-02-19T13:34:47.981Z,0.40
2023-02-19T13:37:52.363Z,0.30
2023-02-19T13:41:00.715Z,0.40
2023-02-19T13:44:06.221Z,0.30
2023-02-19T13:47:47.443Z,0.30
2023-02-19T13:50:50.921Z,0.30
2023-02-19T13:53:56.346Z,0.30
2023-02-19T13:57:29.973Z,0.30
2023-02-19T14:00:52.005Z,0.20
2023-02-19T14:04:08.287Z,0.30
2023-02-19T14:07:10.920Z,0.30
2023-02-19T14:10:34.877Z,0.30
2023-02-19T14:13:52.335Z,0.30
2023-02-19T14:17:08.660Z,0.30
2023-02-19T14:20:46.102Z,0.30
2023-02-19T14:23:55.472Z,0.40
2023-02-19T14:27:01.015Z,0.40
2023-02-19T14:30:05.401Z,0.40
2023-02-19T14:33:11.495Z,0.30
2023-02-19T14:36:33.884Z,0.50
2023-02-19T14:39:39.447Z,0.30
2023-02-19T14:42:42.774Z,0.50
2023-02-19T14:45:51.534Z,0.60
2023-02-19T14:48:55.040Z,0.50
2023-02-19T14:52:04.838Z,0.67
2023-02-19T14:55:15.641Z,0.50
2023-02-19T14:58:25.428Z,0.37
2023-02-19T15:01:29.553Z,0.60
2023-02-19T15:04:38.000Z,0.50
2023-02-19T15:07:42.942Z,0.40
2023-02-19T15:10:47.292Z,0.50
2023-02-19T15:13:56.343Z,0.47
2023-02-19T15:17:06.408Z,0.60
2023-02-19T15:20:21.533Z,0.70
2023-02-19T15:23:26.383Z,0.73
2023-02-19T15:26:39.295Z,0.70
2023-02-19T15:29:47.352Z,0.60
2023-02-19T15:32:57.011Z,0.60
2023-02-19T15:36:05.212Z,0.70
2023-02-19T15:39:08.196Z,0.70
2023-02-19T15:42:18.189Z,0.80
2023-02-19T15:45:29.719Z,0.67
2023-02-19T15:49:06.537Z,0.50
2023-02-19T15:52:22.974Z,0.60
2023-02-19T15:55:32.498Z,0.60
2023-02-19T15:58:58.192Z,0.60
2023-02-19T16:02:02.193Z,0.77
2023-02-19T16:05:24.347Z,1.03
2023-02-19T16:08:35.116Z,0.70
2023-02-19T16:11:52.655Z,0.70
2023-02-19T16:14:55.259Z,0.80
2023-02-19T16:17:59.895Z,0.60
2023-02-19T16:21:10.791Z,0.73
2023-02-19T16:24:28.205Z,0.73
2023-02-19T16:27:36.731Z,0.50
2023-02-19T16:30:39.776Z,0.80
2023-02-19T16:33:44.685Z,0.80
2023-02-19T16:36:49.847Z,0.50
2023-02-19T16:40:09.784Z,0.50
2023-02-19T16:43:16.139Z,0.30
2023-02-19T16:46:23.510Z,0.27
2023-02-19T16:49:26.580Z,0.30
2023-02-19T16:52:30.014Z,0.40
2023-02-19T16:55:33.343Z,0.30
2023-02-19T16:58:38.807Z,0.40
2023-02-19T17:01:43.039Z,0.30
2023-02-19T17:04:47.846Z,0.50
2023-02-19T17:07:53.666Z,0.30
2023-02-19T17:10:56.746Z,0.20
2023-02-19T17:13:59.773Z,0.30
2023-02-19T17:17:02.918Z,0.20
2023-02-19T17:20:35.725Z,0.30
2023-02-19T17:23:39.115Z,0.27
2023-02-19T17:26:42.328Z,0.30
2023-02-19T17:29:47.835Z,0.30
2023-02-19T17:32:53.933Z,0.40
2023-02-19T17:35:56.987Z,0.30
2023-02-19T17:39:01.667Z,0.40
2023-02-19T17:42:06.001Z,0.40
2023-02-19T17:45:09.811Z,0.17
2023-02-19T17:48:13.952Z,0.20
2023-02-19T17:51:16.381Z,0.30
2023-02-19T17:54:19.044Z,0.30
2023-02-19T17:57:21.811Z,0.40
2023-02-19T18:00:31.505Z,0.20
2023-02-19T18:03:34.608Z,0.20
2023-02-19T18:06:38.134Z,0.20
2023-02-19T18:09:41.717Z,0.20
2023-02-19T18:12:45.230Z,0.30
2023-02-19T18:15:50.498Z,0.10
2023-02-19T18:18:53.835Z,0.20
2023-02-19T18:21:57.272Z,0.23
2023-02-19T18:25:00.640Z,0.20
2023-02-19T18:28:03.948Z,0.17
2023-02-19T18:31:08.153Z,0.30
2023-02-19T18:34:18.676Z,0.40
2023-02-19T18:37:24.549Z,0.30
2023-02-19T18:40:27.885Z,0.30
2023-02-19T18:43:30.559Z,0.20
2023-02-19T18:46:34.961Z,0.20
2023-02-19T18:49:38.334Z,0.50
2023-02-19T18:52:45.795Z,0.30
2023-02-19T18:55:48.862Z,0.40
2023-02-19T18:58:51.773Z,0.30
2023-02-19T19:01:55.021Z,0.20
2023-02-19T19:05:01.038Z,0.20
2023-02-19T19:08:04.440Z,0.30
2023-02-19T19:11:07.193Z,0.40
2023-02-19T19:14:10.826Z,0.30
2023-02-19T19:17:13.854Z,0.30
2023-02-19T19:20:23.353Z,0.30
2023-02-19T19:23:26.485Z,0.40
2023-02-19T19:26:29.636Z,0.30
2023-02-19T19:29:34.043Z,0.37
2023-02-19T19:32:38.363Z,0.40
2023-02-19T19:35:42.163Z,0.40
2023-02-19T19:38:45.463Z,0.30
2023-02-19T19:41:57.558Z,0.37
2023-02-19T19:45:00.786Z,0.40
2023-02-19T19:48:04.965Z,0.50
2023-02-19T19:51:10.382Z,0.27
2023-02-19T19:54:13.993Z,0.20
2023-02-19T19:57:17.373Z,0.30
2023-02-19T20:00:20.641Z,0.40
2023-02-19T20:03:23.827Z,0.40
2023-02-19T20:06:31.781Z,0.27
2023-02-19T20:09:35.095Z,0.30
2023-02-19T20:12:44.879Z,0.20
2023-02-19T20:15:48.131Z,0.50
2023-02-19T20:18:51.934Z,0.20
2023-02-19T20:21:55.467Z,0.40
2023-02-19T20:24:58.538Z,0.20
2023-02-19T20:28:01.548Z,0.23
2023-02-19T20:31:07.468Z,0.20
2023-02-19T20:34:10.367Z,0.20
2023-02-19T20:37:13.639Z,0.20
2023-02-19T20:40:19.472Z,0.23
2023-02-19T20:43:21.980Z,0.20
2023-02-19T20:46:25.614Z,0.40
2023-02-19T20:49:31.140Z,0.27
2023-02-19T20:52:34.128Z,0.30
2023-02-19T20:55:45.737Z,0.37
2023-02-19T20:58:48.762Z,0.40
2023-02-19T21:01:52.421Z,0.40
2023-02-19T21:04:58.787Z,0.30
2023-02-19T21:08:01.654Z,0.30
2023-02-19T21:11:04.220Z,0.50
2023-02-19T21:14:15.614Z,0.20
2023-02-19T21:17:18.689Z,0.50
2023-02-19T21:20:21.755Z,0.47
2023-02-19T21:23:25.898Z,0.67
2023-02-19T21:26:39.733Z,0.40
2023-02-19T21:29:42.412Z,0.47
2023-02-19T21:32:45.796Z,0.83
2023-02-19T21:35:48.223Z,0.50
2023-02-19T21:38:50.658Z,0.50
2023-02-19T21:41:53.661Z,0.40
2023-02-19T21:44:56.723Z,0.20
2023-02-19T21:47:59.327Z,0.47
2023-02-19T21:51:01.872Z,0.40
2023-02-19T21:54:05.941Z,0.37
2023-02-19T21:57:09.820Z,0.40
2023-02-19T22:00:12.928Z,0.40
2023-02-19T22:03:16.536Z,0.50
2023-02-19T22:06:20.002Z,0.40
2023-02-19T22:09:22.140Z,0.40
2023-02-19T22:12:24.118Z,0.30
2023-02-19T22:15:26.077Z,0.40
2023-02-19T22:18:28.120Z,0.30
2023-02-19T22:21:32.698Z,0.60
2023-02-19T22:24:34.629Z,0.30
2023-02-19T22:27:36.707Z,0.30
2023-02-19T22:30:38.747Z,0.30
2023-02-19T22:33:40.863Z,0.30
2023-02-19T22:36:43.343Z,0.30
2023-02-19T22:39:45.692Z,0.20
2023-02-19T22:42:47.591Z,0.50
2023-02-19T22:45:49.562Z,0.20
2023-02-19T22:48:51.642Z,0.30
2023-02-19T22:52:24.145Z,0.20
2023-02-19T22:55:26.084Z,0.43
2023-02-19T22:58:28.078Z,0.30
2023-02-19T23:01:30.123Z,0.30
2023-02-19T23:04:32.141Z,0.30
2023-02-19T23:07:34.099Z,0.43
2023-02-19T23:10:36.013Z,0.30
2023-02-19T23:13:38.066Z,0.40
2023-02-19T23:16:40.114Z,0.50
2023-02-19T23:19:42.131Z,0.30
2023-02-19T23:22:44.243Z,0.43
2023-02-19T23:25:46.210Z,0.43
2023-02-19T23:28:48.252Z,0.57
2023-02-19T23:31:50.478Z,0.37
2023-02-19T23:34:52.685Z,0.40
2023-02-19T23:37:56.050Z,0.30
2023-02-19T23:40:59.011Z,0.30
2023-02-19T23:44:00.992Z,0.27
2023-02-19T23:47:02.929Z,0.10
2023-02-19T23:50:05.295Z,0.20
2023-02-19T23:53:07.418Z,0.20
2023-02-19T23:56:09.438Z,0.30
2023-02-19T23:59:12.376Z,0.30
